createdAt,value
2018-08-22T00:00:03.455Z,95894.44
2018-08-22T00:02:32.637Z,95902.27
2018-08-22T00:05:01.805Z,95896.04
2018-08-22T00:07:31.095Z,95889.75
2018-08-22T00:10:00.195Z,95890.19
2018-08-22T00:12:29.408Z,95886.23
2018-08-22T00:14:58.608Z,95889.14
2018-08-22T00:17:27.807Z,95890.01
2018-08-22T00:19:56.913Z,95890.25
2018-08-22T00:22:26.150Z,95886.09
2018-08-22T00:24:55.208Z,95883.58
2018-08-22T00:27:24.392Z,95878.05
2018-08-22T00:29:53.488Z,95872.48
2018-08-22T00:32:22.687Z,95875.38
2018-08-22T00:34:51.774Z,95882.67
2018-08-22T00:37:20.982Z,95879.64
2018-08-22T00:39:50.175Z,95880.25
2018-08-22T00:42:19.323Z,95876.45
2018-08-22T00:44:48.463Z,95877.82
2018-08-22T00:47:17.622Z,95872.74
2018-08-22T00:49:46.761Z,95874.82
2018-08-22T00:52:15.909Z,95874.59
2018-08-22T00:54:45.080Z,95871.83
2018-08-22T00:57:14.171Z,95881.17
2018-08-22T00:59:43.299Z,95877.70
2018-08-22T01:02:12.519Z,95874.47
2018-08-22T01:04:41.611Z,95868.02
2018-08-22T01:07:10.691Z,95872.03
2018-08-22T01:09:39.939Z,95862.47
2018-08-22T01:12:09.129Z,95862.68
2018-08-22T01:14:38.411Z,95866.48
2018-08-22T01:17:07.740Z,95863.73
2018-08-22T01:19:36.879Z,95863.48
2018-08-22T01:22:07.064Z,95858.63
2018-08-22T01:24:36.183Z,95859.09
2018-08-22T01:27:05.363Z,95856.77
2018-08-22T01:29:34.731Z,95863.25
2018-08-22T01:32:03.883Z,95858.16
2018-08-22T01:34:33.023Z,95856.33
2018-08-22T01:37:02.135Z,95854.22
2018-08-22T01:39:31.327Z,95856.54
2018-08-22T01:42:00.512Z,95854.37
2018-08-22T01:44:29.577Z,95853.78
2018-08-22T01:46:58.828Z,95850.55
2018-08-22T01:49:28.523Z,95850.88
2018-08-22T01:51:57.785Z,95851.21
2018-08-22T01:54:26.945Z,95854.44
2018-08-22T01:56:56.112Z,95848.44
2018-08-22T01:59:25.217Z,95851.54
2018-08-22T02:01:54.416Z,95846.12
2018-08-22T02:04:23.596Z,95842.27
2018-08-22T02:06:52.770Z,95843.27
2018-08-22T02:09:21.867Z,95846.41
2018-08-22T02:11:50.979Z,95851.94
2018-08-22T02:14:20.212Z,95855.39
2018-08-22T02:16:49.352Z,95856.20
2018-08-22T02:19:18.472Z,95847.22
2018-08-22T02:21:47.596Z,95848.39
2018-08-22T02:24:16.728Z,95850.95
2018-08-22T02:26:45.878Z,95839.85
2018-08-22T02:29:14.980Z,95847.74
2018-08-22T02:31:44.112Z,95837.73
2018-08-22T02:34:13.298Z,95837.91
2018-08-22T02:36:42.449Z,95842.95
2018-08-22T02:39:11.538Z,95835.46
2018-08-22T02:41:40.756Z,95842.02
2018-08-22T02:44:10.071Z,95838.55
2018-08-22T02:46:39.551Z,95843.72
2018-08-22T02:49:13.056Z,95843.27
2018-08-22T02:51:42.211Z,95842.52
2018-08-22T02:54:11.497Z,95841.25
2018-08-22T02:56:40.638Z,95845.39
2018-08-22T02:59:09.772Z,95837.52
2018-08-22T03:01:38.909Z,95835.41
2018-08-22T03:04:07.979Z,95835.10
2018-08-22T03:06:37.146Z,95836.15
2018-08-22T03:09:07.488Z,95833.38
2018-08-22T03:11:36.732Z,95832.14
2018-08-22T03:14:05.914Z,95833.08
2018-08-22T03:16:35.108Z,95828.81
2018-08-22T03:19:04.212Z,95832.66
2018-08-22T03:21:33.458Z,95834.90
2018-08-22T03:24:02.539Z,95834.31
2018-08-22T03:26:31.829Z,95839.10
2018-08-22T03:29:00.935Z,95836.16
2018-08-22T03:31:30.138Z,95836.91
2018-08-22T03:33:59.229Z,95840.08
2018-08-22T03:36:28.439Z,95832.70
2018-08-22T03:38:57.625Z,95830.66
2018-08-22T03:41:26.715Z,95836.39
2018-08-22T03:43:55.934Z,95834.36
2018-08-22T03:46:25.053Z,95833.27
2018-08-22T03:48:54.205Z,95826.27
2018-08-22T03:51:23.365Z,95834.05
2018-08-22T03:53:52.593Z,95833.80
2018-08-22T03:56:21.867Z,95834.03
2018-08-22T03:58:50.972Z,95831.32
2018-08-22T04:01:20.085Z,95830.91
2018-08-22T04:03:49.293Z,95827.41
2018-08-22T04:06:18.504Z,95834.52
2018-08-22T04:08:47.618Z,95838.80
2018-08-22T04:11:16.719Z,95836.70
2018-08-22T04:13:45.918Z,95840.83
2018-08-22T04:16:15.056Z,95839.73
2018-08-22T04:18:44.132Z,95844.63
2018-08-22T04:21:13.354Z,95841.52
2018-08-22T04:23:42.460Z,95846.83
2018-08-22T04:26:11.568Z,95849.64
2018-08-22T04:28:40.664Z,95850.84
2018-08-22T04:31:09.848Z,95852.71
2018-08-22T04:33:38.932Z,95855.17
2018-08-22T04:36:08.041Z,95854.28
2018-08-22T04:38:37.233Z,95853.36
2018-08-22T04:41:06.625Z,95853.08
2018-08-22T04:43:35.814Z,95857.23
2018-08-22T04:46:04.894Z,95855.10
2018-08-22T04:48:34.045Z,95861.77
2018-08-22T04:51:03.189Z,95854.70
2018-08-22T04:53:32.420Z,95856.48
2018-08-22T04:56:01.519Z,95864.13
2018-08-22T04:58:30.633Z,95857.57
2018-08-22T05:00:59.821Z,95863.28
2018-08-22T05:03:28.917Z,95869.06
2018-08-22T05:05:58.186Z,95870.34
2018-08-22T05:08:27.293Z,95872.78
2018-08-22T05:10:56.452Z,95880.97
2018-08-22T05:13:25.593Z,95881.06
2018-08-22T05:15:54.748Z,95876.95
2018-08-22T05:18:23.952Z,95886.95
2018-08-22T05:20:53.057Z,95881.56
2018-08-22T05:23:22.171Z,95879.05
2018-08-22T05:25:51.289Z,95885.22
2018-08-22T05:28:20.662Z,95879.70
2018-08-22T05:30:49.876Z,95881.33
2018-08-22T05:33:18.970Z,95880.40
2018-08-22T05:35:48.180Z,95881.02
2018-08-22T05:38:17.378Z,95881.09
2018-08-22T05:40:46.576Z,95881.18
2018-08-22T05:43:15.660Z,95884.08
2018-08-22T05:45:44.754Z,95888.72
2018-08-22T05:48:13.968Z,95892.25
2018-08-22T05:50:43.144Z,95889.23
2018-08-22T05:53:12.346Z,95895.27
2018-08-22T05:55:41.540Z,95889.88
2018-08-22T05:58:10.764Z,95892.09
2018-08-22T06:00:39.940Z,95892.91
2018-08-22T06:03:09.064Z,95894.66
2018-08-22T06:05:38.320Z,95893.96
2018-08-22T06:08:07.544Z,95903.13
2018-08-22T06:10:36.728Z,95900.35
2018-08-22T06:13:05.948Z,95901.64
2018-08-22T06:15:35.137Z,95893.44
2018-08-22T06:18:04.216Z,95899.09
2018-08-22T06:20:33.402Z,95896.55
2018-08-22T06:23:02.575Z,95894.82
2018-08-22T06:25:31.708Z,95887.33
2018-08-22T06:28:00.880Z,95892.66
2018-08-22T06:30:29.987Z,95894.02
2018-08-22T06:32:59.167Z,95889.03
2018-08-22T06:35:28.488Z,95892.83
2018-08-22T06:37:57.588Z,95894.56
2018-08-22T06:40:26.688Z,95894.08
2018-08-22T06:42:55.878Z,95897.88
2018-08-22T06:45:24.983Z,95886.73
2018-08-22T06:47:55.396Z,95892.03
2018-08-22T06:50:24.511Z,95894.80
2018-08-22T06:52:53.691Z,95896.63
2018-08-22T06:55:22.916Z,95889.44
2018-08-22T06:57:52.167Z,95889.41
2018-08-22T07:00:21.299Z,95895.30
2018-08-22T07:02:50.501Z,95887.02
2018-08-22T07:05:19.615Z,95891.95
2018-08-22T07:07:48.793Z,95891.91
2018-08-22T07:10:17.990Z,95894.01
2018-08-22T07:12:47.185Z,95894.30
2018-08-22T07:15:16.405Z,95894.73
2018-08-22T07:17:45.485Z,95896.77
2018-08-22T07:20:14.627Z,95895.55
2018-08-22T07:22:43.757Z,95892.30
2018-08-22T07:25:12.981Z,95895.41
2018-08-22T07:27:42.181Z,95900.33
2018-08-22T07:30:11.532Z,95902.13
2018-08-22T07:32:40.681Z,95897.64
2018-08-22T07:35:09.789Z,95898.22
2018-08-22T07:37:38.955Z,95894.42
2018-08-22T07:40:08.054Z,95895.20
2018-08-22T07:42:37.252Z,95893.81
2018-08-22T07:45:06.836Z,95893.05
2018-08-22T07:47:35.940Z,95896.11
2018-08-22T07:50:05.681Z,95899.41
2018-08-22T07:52:34.772Z,95895.82
2018-08-22T07:55:03.904Z,95901.00
2018-08-22T07:57:33.062Z,95904.22
2018-08-22T08:00:02.276Z,95896.39
2018-08-22T08:02:31.406Z,95900.80
2018-08-22T08:05:00.532Z,95902.77
2018-08-22T08:07:29.740Z,95900.36
2018-08-22T08:09:58.919Z,95909.47
2018-08-22T08:12:32.337Z,95905.20
2018-08-22T08:15:04.332Z,95906.67
2018-08-22T08:17:33.581Z,95903.59
2018-08-22T08:20:02.925Z,95905.64
2018-08-22T08:22:32.172Z,95909.55
2018-08-22T08:25:01.317Z,95908.79
2018-08-22T08:27:30.480Z,95907.58
2018-08-22T08:29:59.770Z,95907.05
2018-08-22T08:32:29.035Z,95904.86
2018-08-22T08:34:58.176Z,95897.08
2018-08-22T08:37:27.340Z,95899.38
2018-08-22T08:39:56.573Z,95893.77
2018-08-22T08:42:25.661Z,95893.98
2018-08-22T08:44:55.052Z,95895.36
2018-08-22T08:47:24.438Z,95888.31
2018-08-22T08:49:53.626Z,95888.59
2018-08-22T08:52:22.696Z,95892.48
2018-08-22T08:54:53.011Z,95887.61
2018-08-22T08:57:22.281Z,95882.03
2018-08-22T08:59:51.375Z,95884.27
2018-08-22T09:02:20.578Z,95880.17
2018-08-22T09:04:49.764Z,95880.17
2018-08-22T09:07:18.925Z,95878.13
2018-08-22T09:09:48.121Z,95879.39
2018-08-22T09:12:17.258Z,95877.05
2018-08-22T09:14:46.348Z,95878.45
2018-08-22T09:17:15.686Z,95876.95
2018-08-22T09:19:44.744Z,95874.84
2018-08-22T09:22:13.949Z,95868.68
2018-08-22T09:24:43.145Z,95874.58
2018-08-22T09:27:12.345Z,95866.77
2018-08-22T09:29:41.478Z,95866.08
2018-08-22T09:32:10.656Z,95868.40
2018-08-22T09:34:39.839Z,95872.33
2018-08-22T09:37:08.973Z,95870.48
2018-08-22T09:39:38.433Z,95875.72
2018-08-22T09:42:07.521Z,95869.35
2018-08-22T09:44:36.724Z,95869.70
2018-08-22T09:47:05.844Z,95872.23
2018-08-22T09:49:35.018Z,95868.68
2018-08-22T09:52:04.217Z,95874.80
2018-08-22T09:54:34.835Z,95865.88
2018-08-22T09:57:03.964Z,95859.83
2018-08-22T09:59:33.146Z,95862.30
2018-08-22T10:02:02.328Z,95859.45
2018-08-22T10:04:31.418Z,95860.20
2018-08-22T10:07:00.549Z,95857.66
2018-08-22T10:09:29.639Z,95857.09
2018-08-22T10:11:59.947Z,95851.34
2018-08-22T10:14:29.117Z,95849.69
2018-08-22T10:16:58.250Z,95853.40
2018-08-22T10:19:27.400Z,95850.58
2018-08-22T10:21:56.625Z,95848.92
2018-08-22T10:24:26.030Z,95849.37
2018-08-22T10:26:55.160Z,95845.85
2018-08-22T10:29:24.261Z,95842.67
2018-08-22T10:31:53.540Z,95837.86
2018-08-22T10:34:22.636Z,95844.36
2018-08-22T10:36:51.766Z,95844.44
2018-08-22T10:39:20.986Z,95836.65
2018-08-22T10:41:50.036Z,95836.55
2018-08-22T10:44:19.211Z,95831.02
2018-08-22T10:46:48.384Z,95828.12
2018-08-22T10:49:17.512Z,95826.11
2018-08-22T10:51:46.607Z,95831.75
2018-08-22T10:54:15.782Z,95826.30
2018-08-22T10:56:44.980Z,95823.72
2018-08-22T10:59:14.191Z,95823.25
2018-08-22T11:01:43.280Z,95826.69
2018-08-22T11:04:12.472Z,95819.05
2018-08-22T11:06:41.668Z,95818.07
2018-08-22T11:09:11.474Z,95814.44
2018-08-22T11:11:40.780Z,95816.67
2018-08-22T11:14:10.136Z,95815.67
2018-08-22T11:16:39.295Z,95811.72
2018-08-22T11:19:08.445Z,95812.94
2018-08-22T11:21:48.787Z,95811.13
2018-08-22T11:24:29.456Z,95811.33
2018-08-22T11:27:09.976Z,95806.10
2018-08-22T11:29:50.409Z,95805.10
2018-08-22T11:32:30.861Z,95810.92
2018-08-22T11:34:58.881Z,95802.09
2018-08-22T11:37:28.008Z,95802.67
2018-08-22T11:39:57.129Z,95802.47
2018-08-22T11:42:26.262Z,95799.02
2018-08-22T11:44:55.460Z,95800.08
2018-08-22T11:47:24.565Z,95802.48
2018-08-22T11:49:53.624Z,95805.09
2018-08-22T11:52:22.700Z,95801.72
2018-08-22T11:54:51.962Z,95796.06
2018-08-22T11:57:21.062Z,95801.70
2018-08-22T11:59:51.164Z,95795.08
2018-08-22T12:02:20.356Z,95795.64
2018-08-22T12:04:49.564Z,95798.90
2018-08-22T12:07:18.721Z,95792.71
2018-08-22T12:09:47.872Z,95793.87
2018-08-22T12:12:16.932Z,95803.06
2018-08-22T12:14:46.044Z,95791.56
2018-08-22T12:17:15.235Z,95798.63
2018-08-22T12:19:44.314Z,95795.53
2018-08-22T12:22:13.516Z,95791.50
2018-08-22T12:24:42.610Z,95792.47
2018-08-22T12:27:11.796Z,95796.42
2018-08-22T12:29:40.910Z,95794.17
2018-08-22T12:32:10.070Z,95788.05
2018-08-22T12:34:39.241Z,95786.52
2018-08-22T12:37:08.448Z,95786.06
2018-08-22T12:39:37.608Z,95786.30
2018-08-22T12:42:06.704Z,95791.27
2018-08-22T12:44:35.803Z,95791.47
2018-08-22T12:47:04.971Z,95781.89
2018-08-22T12:49:34.069Z,95780.02
2018-08-22T12:52:03.217Z,95784.94
2018-08-22T12:54:32.560Z,95783.01
2018-08-22T12:57:01.776Z,95785.42
2018-08-22T12:59:30.860Z,95775.84
2018-08-22T13:02:00.071Z,95779.90
2018-08-22T13:04:29.287Z,95770.65
2018-08-22T13:06:58.446Z,95765.64
2018-08-22T13:09:27.565Z,95770.09
2018-08-22T13:11:56.771Z,95767.55
2018-08-22T13:14:25.939Z,95766.13
2018-08-22T13:16:55.052Z,95764.27
2018-08-22T13:19:24.128Z,95762.52
2018-08-22T13:21:53.280Z,95761.05
2018-08-22T13:24:22.457Z,95761.39
2018-08-22T13:26:51.523Z,95756.35
2018-08-22T13:29:20.598Z,95756.47
2018-08-22T13:31:49.844Z,95752.00
2018-08-22T13:34:18.933Z,95754.91
2018-08-22T13:36:48.224Z,95750.59
2018-08-22T13:39:17.330Z,95741.08
2018-08-22T13:41:46.392Z,95743.89
2018-08-22T13:44:15.592Z,95740.36
2018-08-22T13:46:44.813Z,95741.41
2018-08-22T13:49:13.984Z,95736.31
2018-08-22T13:51:43.195Z,95734.40
2018-08-22T13:54:13.226Z,95736.73
2018-08-22T13:56:42.362Z,95735.27
2018-08-22T13:59:11.502Z,95743.77
2018-08-22T14:01:40.740Z,95733.30
2018-08-22T14:04:09.796Z,95733.79
2018-08-22T14:06:38.980Z,95732.00
2018-08-22T14:09:09.475Z,95727.42
2018-08-22T14:11:38.638Z,95727.44
2018-08-22T14:14:07.904Z,95727.23
2018-08-22T14:16:37.122Z,95726.97
2018-08-22T14:19:06.230Z,95734.38
2018-08-22T14:21:35.365Z,95728.86
2018-08-22T14:24:04.544Z,95729.31
2018-08-22T14:26:33.702Z,95727.71
2018-08-22T14:29:02.785Z,95719.90
2018-08-22T14:31:32.172Z,95713.75
2018-08-22T14:34:01.215Z,95708.22
2018-08-22T14:36:30.345Z,95710.91
2018-08-22T14:38:59.573Z,95709.17
2018-08-22T14:41:28.689Z,95703.28
2018-08-22T14:43:57.782Z,95707.27
2018-08-22T14:46:26.959Z,95697.09
2018-08-22T14:48:56.033Z,95699.31
2018-08-22T14:51:25.277Z,95699.64
2018-08-22T14:53:54.369Z,95700.90
2018-08-22T14:56:23.734Z,95695.69
2018-08-22T14:58:52.774Z,95692.92
2018-08-22T15:01:21.872Z,95691.70
2018-08-22T15:03:51.061Z,95689.79
2018-08-22T15:06:20.461Z,95678.98
2018-08-22T15:08:50.556Z,95673.97
2018-08-22T15:11:19.678Z,95671.67
2018-08-22T15:13:48.739Z,95669.14
2018-08-22T15:16:17.944Z,95670.41
2018-08-22T15:18:47.052Z,95664.87
2018-08-22T15:21:16.248Z,95659.16
2018-08-22T15:23:45.434Z,95662.80
2018-08-22T15:26:14.653Z,95660.51
2018-08-22T15:28:43.753Z,95657.41
2018-08-22T15:31:13.151Z,95655.34
2018-08-22T15:33:42.861Z,95648.80
2018-08-22T15:36:11.941Z,95650.39
2018-08-22T15:38:41.063Z,95652.12
2018-08-22T15:41:10.156Z,95643.55
2018-08-22T15:43:39.213Z,95644.77
2018-08-22T15:46:08.357Z,95639.81
2018-08-22T15:48:37.530Z,95639.92
2018-08-22T15:51:06.625Z,95641.16
2018-08-22T15:53:35.845Z,95643.42
2018-08-22T15:56:05.033Z,95642.34
2018-08-22T15:58:34.301Z,95637.16
2018-08-22T16:01:03.397Z,95641.09
2018-08-22T16:03:32.497Z,95639.21
2018-08-22T16:06:01.671Z,95637.59
2018-08-22T16:08:30.817Z,95645.48
2018-08-22T16:11:04.077Z,95637.25
2018-08-22T16:13:33.209Z,95640.91
2018-08-22T16:16:03.001Z,95635.70
2018-08-22T16:18:34.172Z,95632.03
2018-08-22T16:21:04.378Z,95633.03
2018-08-22T16:23:34.744Z,95634.64
2018-08-22T16:26:05.020Z,95632.44
2018-08-22T16:28:47.815Z,95637.30
2018-08-22T16:31:17.109Z,95633.19
2018-08-22T16:33:46.230Z,95622.35
2018-08-22T16:36:19.299Z,95628.09
2018-08-22T16:38:48.499Z,95628.64
2018-08-22T16:41:18.122Z,95631.59
2018-08-22T16:43:49.438Z,95629.34
2018-08-22T16:46:18.487Z,95636.30
2018-08-22T16:48:49.964Z,95632.90
2018-08-22T16:51:19.626Z,95637.92
2018-08-22T16:54:23.773Z,95636.81
2018-08-22T16:56:52.935Z,95636.67
2018-08-22T16:59:22.023Z,95632.94
2018-08-22T17:01:51.891Z,95638.95
2018-08-22T17:04:21.123Z,95630.55
2018-08-22T17:06:50.339Z,95634.17
2018-08-22T17:09:19.433Z,95636.64
2018-08-22T17:11:48.529Z,95632.68
2018-08-22T17:14:17.709Z,95630.98
2018-08-22T17:16:46.847Z,95628.92
2018-08-22T17:19:15.909Z,95623.11
2018-08-22T17:21:45.013Z,95626.73
2018-08-22T17:24:14.227Z,95625.22
2018-08-22T17:26:43.309Z,95624.97
2018-08-22T17:29:12.813Z,95625.14
2018-08-22T17:31:42.413Z,95632.90
2018-08-22T17:34:11.594Z,95631.30
2018-08-22T17:36:40.708Z,95626.14
2018-08-22T17:39:09.940Z,95627.61
2018-08-22T17:41:39.100Z,95624.87
2018-08-22T17:44:10.326Z,95624.73
2018-08-22T17:46:41.710Z,95627.37
2018-08-22T17:49:10.905Z,95622.67
2018-08-22T17:51:55.665Z,95622.85
2018-08-22T17:54:25.255Z,95626.66
2018-08-22T17:57:06.297Z,95618.97
2018-08-22T17:59:35.866Z,95620.36
2018-08-22T18:02:05.045Z,95617.97
2018-08-22T18:04:46.028Z,95618.25
2018-08-22T18:07:15.968Z,95624.75
2018-08-22T18:09:45.749Z,95622.78
2018-08-22T18:12:14.996Z,95624.25
2018-08-22T18:14:44.144Z,95624.11
2018-08-22T18:17:13.335Z,95633.36
2018-08-22T18:19:42.460Z,95630.53
2018-08-22T18:22:11.608Z,95631.56
2018-08-22T18:25:00.313Z,95633.96
2018-08-22T18:27:29.573Z,95632.97
2018-08-22T18:29:58.573Z,95628.77
2018-08-22T18:32:27.789Z,95638.18
2018-08-22T18:35:02.363Z,95641.41
2018-08-22T18:37:32.190Z,95638.56
2018-08-22T18:40:29.647Z,95636.98
2018-08-22T18:43:00.900Z,95642.34
2018-08-22T18:45:30.265Z,95640.72
2018-08-22T18:48:00.980Z,95649.50
2018-08-22T18:50:30.193Z,95646.89
2018-08-22T18:53:00.428Z,95655.27
2018-08-22T18:55:30.848Z,95651.05
2018-08-22T18:58:02.468Z,95658.27
2018-08-22T19:00:35.176Z,95658.86
2018-08-22T19:03:04.227Z,95654.44
2018-08-22T19:05:34.735Z,95657.18
2018-08-22T19:08:12.454Z,95653.11
2018-08-22T19:10:42.822Z,95657.89
2018-08-22T19:13:17.045Z,95656.99
2018-08-22T19:15:51.059Z,95658.14
2018-08-22T19:18:20.354Z,95656.95
2018-08-22T19:20:49.858Z,95662.98
2018-08-22T19:23:19.140Z,95657.96
2018-08-22T19:25:49.639Z,95657.02
2018-08-22T19:28:18.988Z,95661.25
2018-08-22T19:30:48.436Z,95660.77
2018-08-22T19:33:20.040Z,95654.96
2018-08-22T19:35:49.446Z,95656.55
2018-08-22T19:38:20.398Z,95654.72
2018-08-22T19:40:49.544Z,95649.17
2018-08-22T19:43:18.633Z,95646.98
2018-08-22T19:45:47.880Z,95648.37
2018-08-22T19:48:16.995Z,95650.27
2018-08-22T19:50:46.112Z,95652.70
2018-08-22T19:53:15.210Z,95650.63
2018-08-22T19:55:44.313Z,95652.86
2018-08-22T19:58:15.324Z,95651.62
2018-08-22T20:00:44.428Z,95650.75
2018-08-22T20:03:15.589Z,95659.22
2018-08-22T20:05:51.451Z,95661.09
2018-08-22T20:08:25.304Z,95663.48
2018-08-22T20:10:54.436Z,95655.87
2018-08-22T20:13:23.561Z,95657.27
2018-08-22T20:15:52.640Z,95656.34
2018-08-22T20:18:21.746Z,95661.56
2018-08-22T20:20:50.903Z,95662.15
2018-08-22T20:23:20.850Z,95665.81
2018-08-22T20:25:49.927Z,95662.89
2018-08-22T20:28:19.026Z,95660.81
2018-08-22T20:30:48.201Z,95665.02
2018-08-22T20:33:17.285Z,95667.48
2018-08-22T20:35:46.395Z,95671.98
2018-08-22T20:38:15.489Z,95664.83
2018-08-22T20:40:44.617Z,95666.22
2018-08-22T20:43:21.129Z,95663.69
2018-08-22T20:45:50.234Z,95667.75
2018-08-22T20:48:19.348Z,95667.11
2018-08-22T20:50:48.471Z,95666.98
2018-08-22T20:53:18.045Z,95662.27
2018-08-22T20:55:47.238Z,95655.45
2018-08-22T20:58:20.441Z,95663.28
2018-08-22T21:00:49.555Z,95666.83
2018-08-22T21:03:18.905Z,95671.49
2018-08-22T21:05:48.053Z,95663.94
2018-08-22T21:08:17.231Z,95680.86
2018-08-22T21:10:46.332Z,95678.58
2018-08-22T21:13:20.621Z,95673.54
2018-08-22T21:15:49.705Z,95677.67
2018-08-22T21:18:18.837Z,95677.98
2018-08-22T21:20:48.027Z,95676.31
2018-08-22T21:23:17.085Z,95668.06
2018-08-22T21:25:46.480Z,95675.56
2018-08-22T21:28:15.684Z,95669.92
2018-08-22T21:30:48.801Z,95672.30
2018-08-22T21:33:17.993Z,95672.19
2018-08-22T21:35:47.108Z,95671.83
2018-08-22T21:38:18.240Z,95660.61
2018-08-22T21:40:47.513Z,95667.42
2018-08-22T21:43:16.843Z,95666.66
2018-08-22T21:45:48.174Z,95671.93
2018-08-22T21:48:19.197Z,95669.95
2018-08-22T21:50:48.313Z,95669.28
2018-08-22T21:53:17.456Z,95659.86
2018-08-22T21:55:48.701Z,95664.78
2018-08-22T21:58:17.898Z,95662.90
2018-08-22T22:00:47.096Z,95663.80
2018-08-22T22:03:20.431Z,95667.10
2018-08-22T22:05:54.344Z,95667.72
2018-08-22T22:08:23.752Z,95669.83
2018-08-22T22:11:05.207Z,95669.20
2018-08-22T22:13:34.289Z,95667.27
2018-08-22T22:16:04.959Z,95667.77
2018-08-22T22:18:34.898Z,95666.69
2018-08-22T22:21:11.788Z,95663.25
2018-08-22T22:23:46.273Z,95656.79
2018-08-22T22:26:16.581Z,95660.11
2018-08-22T22:28:45.696Z,95663.16
2018-08-22T22:31:15.916Z,95657.75
2018-08-22T22:33:48.629Z,95662.01
2018-08-22T22:36:17.834Z,95666.77
2018-08-22T22:38:46.911Z,95664.72
2018-08-22T22:41:16.033Z,95658.13
2018-08-22T22:43:45.234Z,95655.20
2018-08-22T22:46:14.333Z,95656.20
2018-08-22T22:48:44.219Z,95659.52
2018-08-22T22:51:13.335Z,95665.00
2018-08-22T22:53:42.432Z,95660.91
2018-08-22T22:56:11.605Z,95655.19
2018-08-22T22:58:40.908Z,95648.73
2018-08-22T23:01:10.028Z,95649.25
2018-08-22T23:03:40.944Z,95648.23
2018-08-22T23:06:10.155Z,95648.59
2018-08-22T23:08:39.233Z,95647.05
2018-08-22T23:11:08.327Z,95647.57
2018-08-22T23:13:37.527Z,95640.61
2018-08-22T23:16:06.624Z,95639.75
2018-08-22T23:18:35.860Z,95644.44
2018-08-22T23:21:04.966Z,95644.06
2018-08-22T23:23:37.770Z,95640.67
2018-08-22T23:26:14.024Z,95635.42
2018-08-22T23:28:44.257Z,95630.29
2018-08-22T23:31:17.570Z,95627.47
2018-08-22T23:33:46.685Z,95622.79
2018-08-22T23:36:15.880Z,95622.98
2018-08-22T23:38:45.088Z,95620.94
2018-08-22T23:41:14.199Z,95628.16
2018-08-22T23:43:50.476Z,95623.80
2018-08-22T23:46:19.866Z,95626.12
2018-08-22T23:48:55.148Z,95621.91
2018-08-22T23:51:24.272Z,95626.34
2018-08-22T23:53:56.955Z,95632.17
2018-08-22T23:56:30.266Z,95627.58
2018-08-22T23:58:59.796Z,95629.85
